This is the latest recevied weather packets stored in our database for station/object N3WMC. If no packets are shown the sender has not sent any weather packets the latest 10 day(s).
| Time | Temp. | Humidity | Pressure | Rain* | Wind** | Luminosity | Snow |
|---|---|---|---|---|---|---|---|
| 1787950310 | 26.11° C | 57% | 1020.9 hPa | 0 mm | - | 288 W/m² | - |
| 1787950006 | 25° C | 59% | 1021 hPa | 0 mm | - | 337 W/m² | - |
| 1787949701 | 24.44° C | 60% | 1021 hPa | 0 mm | - | 116 W/m² | - |
| 1787949401 | 25° C | 61% | 1021 hPa | 0 mm | - | 97 W/m² | - |
| 1787949096 | 25° C | 59% | 1020.8 hPa | 0 mm | - | 128 W/m² | - |
| 1787948792 | 25° C | 61% | 1020.9 hPa | 0 mm | - | 129 W/m² | - |
| 1787948491 | 25° C | 60% | 1020.8 hPa | 0 mm | - | 124 W/m² | - |
| 1787948187 | 25.56° C | 61% | 1020.8 hPa | 0 mm | - | 361 W/m² | - |
| 1787947885 | 25.56° C | 61% | 1021 hPa | 0 mm | - | 311 W/m² | - |
| 1787947581 | 25° C | 61% | 1020.8 hPa | 0 mm | - | 128 W/m² | - |
| 1787947274 | 26.11° C | 57% | 1020.8 hPa | 0 mm | - | 145 W/m² | - |
| 1787946968 | 25.56° C | 61% | 1020.8 hPa | 0 mm | - | 137 W/m² | - |
| 1787946666 | 26.67° C | 57% | 1020.9 hPa | 0 mm | - | 173 W/m² | - |
| 1787946361 | 26.11° C | 59% | 1021.2 hPa | 0 mm | - | 483 W/m² | - |
| 1787946055 | 24.44° C | 64% | 1020.9 hPa | 0 mm | - | 521 W/m² | - |
| 1787945750 | 25° C | 63% | 1021.1 hPa | 0 mm | - | 160 W/m² | - |
| 1787945446 | 26.11° C | 63% | 1021.2 hPa | 0 mm | - | 175 W/m² | - |
| 1787945142 | 25.56° C | 62% | 1021.3 hPa | 0 mm | - | 463 W/m² | - |
| 1787944839 | 25° C | 64% | 1021.3 hPa | 0 mm | - | 633 W/m² | - |
| 1787944534 | 24.44° C | 67% | 1021.2 hPa | 0 mm | - | 295 W/m² | - |
| 1787944230 | 24.44° C | 67% | 1021.5 hPa | 0 mm | - | 239 W/m² | - |
| 1787943929 | 24.44° C | 68% | 1021.2 hPa | 0 mm | - | 218 W/m² | - |
| 1787943625 | 24.44° C | 67% | 1021.7 hPa | 0 mm | - | 270 W/m² | - |
| 1787943324 | 24.44° C | 67% | 1021.6 hPa | 0 mm | - | 197 W/m² | - |
| 1787943020 | 24.44° C | 69% | 1021.5 hPa | 0 mm | - | 237 W/m² | - |
* Rain latest hour (hover to see other rain measurements)
** Current wind speed in m/s (hover to see current wind gust speed)